Time;durP1;ratioP1;P1;durP2;ratioP2;P2;SDS_P1;SDS_P2;PMS_P1;PMS_P2;Temp;Humidity;BMP_temperature;BMP_pressure;BME280_temperature;BME280_humidity;BME280_pressure;Samples;Min_cycle;Max_cycle;Signal;HPM_P1;HPM_P2
2022/02/26 00:00:17;;;;;;;38.23;15.07;;;1.60;99.90;;;;;;5112622;28;20197;-85
2022/02/26 00:02:43;;;;;;;34.73;13.30;;;1.60;99.90;;;;;;5113017;28;20174;-83
2022/02/26 00:05:09;;;;;;;32.60;15.07;;;1.60;99.90;;;;;;5113037;28;20174;-84
2022/02/26 00:07:35;;;;;;;31.60;14.40;;;1.60;99.90;;;;;;5095865;28;20272;-84
2022/02/26 00:10:01;;;;;;;36.13;16.27;;;1.70;99.90;;;;;;5112776;28;20518;-84
2022/02/26 00:12:27;;;;;;;32.57;14.93;;;;;;;;;;5112570;28;20635;-83
2022/02/26 00:14:53;;;;;;;37.50;15.90;;;1.60;99.90;;;;;;5113961;28;20184;-85
2022/02/26 00:17:18;;;;;;;35.93;15.00;;;1.80;99.90;;;;;;5095687;28;20185;-83
2022/02/26 00:19:44;;;;;;;35.97;14.87;;;1.90;99.90;;;;;;5113883;28;20185;-84
2022/02/26 00:22:10;;;;;;;32.17;15.10;;;1.90;99.90;;;;;;5095501;28;20189;-83
2022/02/26 00:24:36;;;;;;;28.50;14.07;;;2.40;99.90;;;;;;5113763;28;20174;-84
2022/02/26 00:27:02;;;;;;;28.10;13.30;;;1.70;99.90;;;;;;5113410;28;20234;-85
2022/02/26 00:29:28;;;;;;;37.23;15.17;;;1.40;99.90;;;;;;5113854;28;20174;-85
2022/02/26 00:31:53;;;;;;;29.47;13.07;;;1.60;99.90;;;;;;5112776;28;20185;-84
2022/02/26 00:34:20;;;;;;;39.87;15.87;;;;;;;;;;5112866;28;20240;-85
2022/02/26 00:36:46;;;;;;;35.63;16.07;;;;;;;;;;5126330;28;20186;-84
2022/02/26 00:39:12;;;;;;;33.70;13.20;;;;;;;;;;5132731;28;20174;-82
2022/02/26 00:41:38;;;;;;;36.27;15.80;;;;;;;;;;5131381;28;20261;-84
2022/02/26 00:44:04;;;;;;;33.20;14.70;;;;;;;;;;5131960;28;20176;-83
2022/02/26 00:46:30;;;;;;;30.60;14.00;;;;;;;;;;5124191;28;20184;-85
2022/02/26 00:51:42;;;;;;;39.17;14.87;;;;;;;;;;5112448;28;20221;-85
2022/02/26 00:54:08;;;;;;;37.80;16.17;;;;;;;;;;5114044;28;20210;-84
2022/02/26 00:56:34;;;;;;;39.73;14.67;;;;;;;;;;5113338;28;20233;-85
2022/02/26 00:59:00;;;;;;;40.23;16.67;;;;;;;;;;5112913;28;20178;-84
2022/02/26 01:01:26;;;;;;;43.27;16.60;;;;;;;;;;5114437;28;20174;-86
2022/02/26 01:03:52;;;;;;;41.70;17.80;;;0.90;99.90;;;;;;5113857;28;20178;-84
2022/02/26 01:06:17;;;;;;;30.97;14.93;;;0.70;99.90;;;;;;5111903;28;20182;-85
2022/02/26 01:08:43;;;;;;;30.13;15.60;;;;;;;;;;5113700;28;20186;-84
2022/02/26 01:11:09;;;;;;;47.37;18.37;;;;;;;;;;5115772;28;20185;-83
2022/02/26 01:13:35;;;;;;;36.70;16.00;;;0.80;99.90;;;;;;5099866;28;20304;-84
2022/02/26 01:16:01;;;;;;;39.63;15.80;;;;;;;;;;5118633;28;20180;-84
2022/02/26 01:18:27;;;;;;;35.40;13.93;;;0.80;99.90;;;;;;5116705;28;20231;-84
2022/02/26 01:20:53;;;;;;;31.33;14.67;;;;;;;;;;5115654;28;20634;-84
2022/02/26 01:23:19;;;;;;;38.93;15.80;;;;;;;;;;5117285;28;20182;-83
2022/02/26 01:25:45;;;;;;;35.00;14.80;;;0.40;99.90;;;;;;5098757;28;20213;-84
2022/02/26 01:28:10;;;;;;;35.33;15.60;;;0.40;99.90;;;;;;5099205;28;20206;-84
2022/02/26 01:30:36;;;;;;;28.23;13.57;;;0.30;99.90;;;;;;5115522;28;20174;-85
2022/02/26 01:33:02;;;;;;;44.20;16.53;;;0.20;99.90;;;;;;5115707;28;20278;-85
2022/02/26 01:35:27;;;;;;;33.13;14.10;;;1.00;99.90;;;;;;5115990;28;20264;-85
2022/02/26 01:37:53;;;;;;;32.47;14.33;;;0.30;99.90;;;;;;5098244;28;20188;-85
2022/02/26 01:40:19;;;;;;;26.17;12.47;;;0.30;99.90;;;;;;5098561;28;20185;-84
2022/02/26 01:42:44;;;;;;;29.13;13.93;;;0.80;99.90;;;;;;5115940;28;20209;-85
2022/02/26 01:45:12;;;;;;;27.13;13.57;;;0.30;99.90;;;;;;5098866;28;20256;-85
2022/02/26 01:47:38;;;;;;;33.93;16.20;;;0.30;99.90;;;;;;5116640;27;20171;-85
2022/02/26 01:50:05;;;;;;;43.27;17.13;;;0.30;99.90;;;;;;5098591;28;20283;-85
2022/02/26 01:52:31;;;;;;;43.67;20.33;;;0.20;99.90;;;;;;5115353;28;20192;-85
2022/02/26 01:54:58;;;;;;;40.73;18.10;;;1.10;99.90;;;;;;5115106;28;20197;-84
2022/02/26 01:57:25;;;;;;;41.93;18.47;;;0.10;99.90;;;;;;5116549;28;20222;-85
2022/02/26 01:59:50;;;;;;;38.57;16.67;;;0.10;99.90;;;;;;5116365;28;20234;-84
2022/02/26 02:02:16;;;;;;;43.57;18.53;;;0.30;99.90;;;;;;5116393;28;20180;-84
2022/02/26 02:04:42;;;;;;;35.97;16.30;;;2.40;99.90;;;;;;5097987;28;20186;-83
2022/02/26 02:07:07;;;;;;;37.53;15.97;;;-0.10;99.90;;;;;;5115203;28;20189;-84
2022/02/26 02:09:34;;;;;;;36.50;15.93;;;-0.10;99.90;;;;;;5115046;28;20695;-84
2022/02/26 02:12:00;;;;;;;40.07;16.93;;;0.10;99.90;;;;;;5115293;28;20630;-84
2022/02/26 02:14:26;;;;;;;47.03;18.27;;;;;;;;;;5114961;28;20231;-84
2022/02/26 02:16:51;;;;;;;45.17;18.73;;;-0.20;99.90;;;;;;5114767;28;20183;-84
2022/02/26 02:19:17;;;;;;;44.17;18.93;;;0.30;99.90;;;;;;5080962;28;20726;-84
2022/02/26 02:21:43;;;;;;;48.93;20.93;;;-0.20;99.90;;;;;;5113648;28;20196;-84
2022/02/26 02:24:08;;;;;;;60.60;23.17;;;-0.20;99.90;;;;;;5097702;28;20188;-85
2022/02/26 02:26:35;;;;;;;52.77;25.30;;;0.00;99.90;;;;;;5115997;28;20178;-84
2022/02/26 02:29:03;;;;;;;52.40;23.93;;;0.00;99.90;;;;;;5114781;28;20174;-84
2022/02/26 02:31:29;;;;;;;50.40;22.33;;;;;;;;;;5116866;28;20265;-84
2022/02/26 02:33:55;;;;;;;49.63;19.67;;;;;;;;;;5114390;28;20375;-84
2022/02/26 02:36:22;;;;;;;37.33;17.93;;;-0.20;99.90;;;;;;5114747;28;20216;-84
2022/02/26 02:38:48;;;;;;;33.23;15.80;;;1.70;99.90;;;;;;5114435;28;20174;-85
2022/02/26 02:41:14;;;;;;;43.80;17.37;;;0.30;99.90;;;;;;5097733;28;20315;-85
2022/02/26 02:43:40;;;;;;;35.70;15.17;;;;;;;;;;5114299;28;20210;-88
2022/02/26 02:46:07;;;;;;;32.90;14.67;;;;;;;;;;5114420;28;20531;-84
2022/02/26 02:48:33;;;;;;;25.40;12.03;;;;;;;;;;5114364;28;20188;-84
2022/02/26 02:50:59;;;;;;;29.10;12.60;;;;;;;;;;5115322;28;20268;-84
2022/02/26 02:53:25;;;;;;;29.67;12.03;;;;;;;;;;5114051;28;20217;-84
2022/02/26 02:55:51;;;;;;;35.63;12.77;;;0.20;99.90;;;;;;5113809;28;20706;-84
2022/02/26 02:58:28;;;;;;;26.47;10.93;;;0.20;99.90;;;;;;5114178;28;20206;-84
2022/02/26 03:00:56;;;;;;;25.43;11.40;;;0.20;99.90;;;;;;5113749;28;20637;-84
2022/02/26 03:03:22;;;;;;;25.37;12.30;;;0.20;99.90;;;;;;5113831;28;20189;-84
2022/02/26 03:05:48;;;;;;;20.23;11.17;;;0.60;99.90;;;;;;5115190;28;20173;-83
2022/02/26 03:08:15;;;;;;;22.73;11.07;;;0.80;99.90;;;;;;5114002;28;20182;-84
2022/02/26 03:10:40;;;;;;;27.67;11.27;;;2.10;99.90;;;;;;5113811;28;20231;-84
2022/02/26 03:13:07;;;;;;;22.73;12.37;;;0.10;99.90;;;;;;5113588;28;20209;-84
2022/02/26 03:15:33;;;;;;;31.97;12.30;;;1.30;99.90;;;;;;5115200;28;20634;-84
2022/02/26 03:17:59;;;;;;;25.67;11.57;;;;;;;;;;5113679;28;20215;-84
2022/02/26 03:20:25;;;;;;;23.40;11.37;;;0.10;99.90;;;;;;5114806;28;20600;-84
2022/02/26 03:22:51;;;;;;;30.27;12.13;;;1.90;99.90;;;;;;5113552;28;20268;-84
2022/02/26 03:25:19;;;;;;;24.03;10.63;;;0.50;99.90;;;;;;5113822;28;20178;-84
2022/02/26 03:27:45;;;;;;;26.57;11.63;;;;;;;;;;5113400;28;20189;-86
2022/02/26 03:30:11;;;;;;;29.40;12.07;;;0.00;99.90;;;;;;5114021;28;20263;-84
2022/02/26 03:32:37;;;;;;;26.57;11.90;;;;;;;;;;5114965;28;20366;-84
2022/02/26 03:35:04;;;;;;;25.83;12.17;;;0.30;99.90;;;;;;5112892;28;20186;-84
2022/02/26 03:37:31;;;;;;;36.37;15.40;;;;;;;;;;5114808;27;20180;-84
2022/02/26 03:39:57;;;;;;;75.03;28.73;;;;;;;;;;5114321;28;20270;-85
2022/02/26 03:42:23;;;;;;;56.73;22.43;;;;;;;;;;5114681;28;20254;-84
2022/02/26 03:44:50;;;;;;;45.20;19.20;;;;;;;;;;5113067;28;20654;-85
2022/02/26 03:47:17;;;;;;;38.97;16.87;;;0.00;99.90;;;;;;5113581;28;20182;-84
2022/02/26 03:49:44;;;;;;;43.53;18.50;;;0.00;99.90;;;;;;5096327;28;20588;-84
2022/02/26 03:52:10;;;;;;;38.97;18.63;;;;;;;;;;5113080;28;20185;-85
2022/02/26 03:54:36;;;;;;;37.67;16.07;;;;;;;;;;5112841;28;20610;-85
2022/02/26 03:57:02;;;;;;;35.90;15.73;;;0.00;99.90;;;;;;5114367;28;20177;-84
2022/02/26 03:59:28;;;;;;;36.40;15.47;;;;;;;;;;5096008;28;20178;-84
2022/02/26 04:01:55;;;;;;;29.30;14.00;;;;;;;;;;5095918;28;20548;-85
2022/02/26 04:04:20;;;;;;;33.57;16.37;;;-0.50;99.90;;;;;;5114305;28;20649;-84
2022/02/26 04:06:46;;;;;;;37.30;16.53;;;1.70;99.90;;;;;;5114071;28;20181;-85
2022/02/26 04:09:12;;;;;;;49.60;19.97;;;0.90;99.90;;;;;;5112631;28;20231;-85
2022/02/26 04:11:38;;;;;;;49.43;22.17;;;-0.20;99.90;;;;;;5095881;28;20289;-85
2022/02/26 04:14:04;;;;;;;33.00;16.93;;;1.50;99.90;;;;;;5112630;28;20210;-85
2022/02/26 04:16:30;;;;;;;48.17;23.17;;;-0.20;99.90;;;;;;5112535;28;20313;-85
2022/02/26 04:18:56;;;;;;;50.37;22.90;;;1.80;99.90;;;;;;5112420;28;20185;-84
2022/02/26 04:21:23;;;;;;;42.07;20.40;;;0.40;99.90;;;;;;5113969;28;20181;-85
2022/02/26 04:23:49;;;;;;;39.77;18.33;;;1.10;99.90;;;;;;5095745;28;20648;-85
2022/02/26 04:26:15;;;;;;;36.93;16.70;;;-0.20;99.90;;;;;;5112239;28;20188;-85
2022/02/26 04:28:41;;;;;;;42.13;17.33;;;-0.50;99.90;;;;;;5112464;28;20656;-85
2022/02/26 04:31:07;;;;;;;38.33;16.77;;;-0.20;99.90;;;;;;5095702;28;20648;-85
2022/02/26 04:33:32;;;;;;;41.73;16.40;;;0.70;99.90;;;;;;5112056;28;20240;-85
2022/02/26 04:35:59;;;;;;;33.77;15.00;;;0.30;99.90;;;;;;5113162;28;20185;-86
2022/02/26 04:38:25;;;;;;;29.43;14.17;;;-0.30;99.90;;;;;;5113360;28;20181;-85
2022/02/26 04:40:51;;;;;;;26.93;12.37;;;0.30;99.90;;;;;;5114146;28;20173;-85
2022/02/26 04:43:17;;;;;;;30.47;11.63;;;-0.50;99.90;;;;;;5113262;28;20242;-85
2022/02/26 04:45:43;;;;;;;26.50;11.37;;;-0.50;99.90;;;;;;5115179;28;20180;-85
2022/02/26 04:48:10;;;;;;;24.53;10.90;;;0.70;99.90;;;;;;5096558;28;20184;-85
2022/02/26 04:50:35;;;;;;;25.73;10.60;;;2.50;99.90;;;;;;5112525;28;20177;-85
2022/02/26 04:53:01;;;;;;;29.43;12.20;;;1.10;99.90;;;;;;5111971;28;20217;-86
2022/02/26 04:55:27;;;;;;;26.93;12.30;;;-0.30;99.90;;;;;;5096091;28;20186;-85
2022/02/26 04:57:52;;;;;;;22.80;12.27;;;-0.30;99.90;;;;;;5112510;28;20516;-85
2022/02/26 05:00:18;;;;;;;42.07;15.27;;;-0.30;99.90;;;;;;5114374;28;20181;-85
2022/02/26 05:02:44;;;;;;;33.40;14.30;;;0.70;99.90;;;;;;5115449;28;20182;-85
2022/02/26 05:05:10;;;;;;;31.87;14.07;;;-0.30;99.90;;;;;;5112283;28;20170;-84
2022/02/26 05:07:35;;;;;;;30.73;12.40;;;-0.20;99.90;;;;;;5095568;28;20278;-84
2022/02/26 05:10:01;;;;;;;32.90;12.20;;;-0.30;99.90;;;;;;5113177;28;20512;-85
2022/02/26 05:12:27;;;;;;;29.20;12.30;;;-0.30;99.90;;;;;;5112718;28;20177;-85
2022/02/26 05:14:54;;;;;;;30.13;12.67;;;0.00;99.90;;;;;;5114196;28;20212;-84
2022/02/26 05:17:20;;;;;;;32.50;15.57;;;;;;;;;;5095218;28;20687;-85
2022/02/26 05:19:46;;;;;;;32.23;13.17;;;;;;;;;;5112123;28;20182;-85
2022/02/26 05:22:12;;;;;;;25.87;10.77;;;;;;;;;;5094686;28;20285;-82
2022/02/26 05:24:38;;;;;;;27.27;11.40;;;;;;;;;;5111708;28;20715;-85
2022/02/26 05:27:04;;;;;;;24.70;11.07;;;;;;;;;;5111829;28;20237;-85
2022/02/26 05:29:30;;;;;;;24.50;10.60;;;;;;;;;;5113870;28;20235;-85
2022/02/26 05:31:56;;;;;;;24.80;10.57;;;;;;;;;;5113295;28;20620;-85
2022/02/26 05:34:22;;;;;;;24.87;11.43;;;;;;;;;;5094473;28;20251;-85
2022/02/26 05:36:48;;;;;;;28.93;11.30;;;;;;;;;;5112142;28;20182;-85
2022/02/26 05:39:14;;;;;;;28.33;12.33;;;;;;;;;;5112712;28;20512;-85
2022/02/26 05:41:40;;;;;;;23.03;10.80;;;;;;;;;;5113271;28;20686;-85
2022/02/26 05:44:07;;;;;;;24.43;12.10;;;;;;;;;;5111769;28;20181;-85
2022/02/26 05:46:35;;;;;;;31.17;12.83;;;;;;;;;;5113158;28;20246;-85
2022/02/26 05:49:01;;;;;;;29.30;11.03;;;;;;;;;;5095240;28;20189;-85
2022/02/26 05:51:27;;;;;;;30.13;12.03;;;;;;;;;;5111150;28;20273;-85
2022/02/26 05:53:53;;;;;;;27.63;11.43;;;0.00;99.90;;;;;;5111318;28;20706;-85
2022/02/26 05:56:19;;;;;;;28.37;12.63;;;;;;;;;;5111335;28;20185;-85
2022/02/26 05:58:45;;;;;;;45.73;18.23;;;;;;;;;;5115065;28;20185;-85
2022/02/26 06:01:11;;;;;;;36.07;15.87;;;;;;;;;;5116221;28;20174;-85
2022/02/26 06:03:37;;;;;;;27.73;11.97;;;;;;;;;;5109677;28;20186;-87
2022/02/26 06:06:03;;;;;;;30.00;12.27;;;;;;;;;;5107128;27;20193;-86
2022/02/26 06:08:30;;;;;;;30.57;13.70;;;;;;;;;;5113674;28;20270;-86
2022/02/26 06:10:56;;;;;;;29.77;13.03;;;;;;;;;;5104834;28;20300;-87
2022/02/26 06:13:22;;;;;;;26.70;11.77;;;;;;;;;;5106457;28;20293;-85
2022/02/26 06:15:49;;;;;;;25.77;12.00;;;;;;;;;;5108813;27;20189;-85
2022/02/26 06:18:15;;;;;;;37.33;13.77;;;0.30;99.90;;;;;;5092708;28;20631;-86
2022/02/26 06:20:40;;;;;;;44.80;15.03;;;0.10;99.90;;;;;;5102669;28;20269;-85
2022/02/26 06:23:06;;;;;;;36.50;15.17;;;2.20;99.90;;;;;;5107874;27;20197;-86
2022/02/26 06:25:32;;;;;;;42.77;18.50;;;2.30;99.90;;;;;;5084702;28;20213;-85
2022/02/26 06:27:58;;;;;;;53.83;25.13;;;0.40;99.90;;;;;;5098380;27;20247;-85
2022/02/26 06:30:26;;;;;;;38.27;20.20;;;1.60;99.90;;;;;;5098292;28;21165;-86
2022/02/26 06:32:52;;;;;;;40.53;16.50;;;0.60;99.90;;;;;;5106721;28;20233;-86
2022/02/26 06:35:18;;;;;;;39.13;16.63;;;0.60;99.90;;;;;;5102575;28;20190;-85
2022/02/26 06:37:44;;;;;;;46.00;16.13;;;0.70;99.90;;;;;;5106497;28;20186;-85
2022/02/26 06:40:10;;;;;;;36.00;15.03;;;1.50;99.90;;;;;;5103205;27;20194;-88
2022/02/26 06:42:36;;;;;;;37.20;15.10;;;;;;;;;;5105088;27;20234;-86
2022/02/26 06:45:03;;;;;;;29.67;13.17;;;1.10;99.90;;;;;;5100008;28;20191;-85
2022/02/26 06:47:29;;;;;;;33.73;14.07;;;1.20;99.90;;;;;;5068178;28;20278;-85
2022/02/26 06:49:55;;;;;;;28.60;12.80;;;1.20;99.90;;;;;;5099230;28;20316;-85
2022/02/26 06:52:21;;;;;;;29.43;13.10;;;;;;;;;;5075782;28;20347;-89
2022/02/26 06:54:46;;;;;;;30.13;13.27;;;1.40;99.90;;;;;;5106430;27;20228;-88
2022/02/26 06:57:12;;;;;;;32.30;14.70;;;1.40;99.90;;;;;;5108931;27;20449;-88
2022/02/26 06:59:38;;;;;;;23.93;12.07;;;1.60;99.90;;;;;;5098094;27;21050;-84
2022/02/26 07:02:04;;;;;;;39.90;14.37;;;3.00;99.90;;;;;;5085350;28;21034;-88
2022/02/26 07:04:30;;;;;;;30.87;13.47;;;;;;;;;;5081260;28;20198;-88
2022/02/26 07:06:55;;;;;;;34.50;13.50;;;1.40;99.90;;;;;;5090475;28;20260;-89
2022/02/26 07:09:22;;;;;;;29.03;12.47;;;1.50;99.90;;;;;;5097827;28;20526;-86
2022/02/26 07:11:48;;;;;;;32.07;13.53;;;;;;;;;;5112244;27;20190;-88
2022/02/26 07:14:15;;;;;;;33.60;15.10;;;1.60;99.90;;;;;;5107547;28;20214;-87
2022/02/26 07:16:41;;;;;;;34.83;13.50;;;1.60;99.90;;;;;;5109142;28;20190;-88
2022/02/26 07:19:07;;;;;;;32.53;12.23;;;1.70;99.90;;;;;;5107080;28;20194;-87
2022/02/26 07:21:35;;;;;;;36.43;12.57;;;1.70;99.90;;;;;;5094926;28;20225;-86
2022/02/26 07:24:02;;;;;;;30.80;14.07;;;1.70;99.90;;;;;;5085572;28;20292;-86
2022/02/26 07:26:30;;;;;;;34.63;13.40;;;1.70;99.90;;;;;;5093928;28;20171;-85
2022/02/26 07:28:56;;;;;;;34.53;14.40;;;1.80;99.90;;;;;;5100229;28;20190;-87
2022/02/26 07:31:22;;;;;;;28.33;12.93;;;1.90;99.90;;;;;;5113406;28;20182;-87
2022/02/26 07:33:48;;;;;;;29.60;13.73;;;1.90;99.90;;;;;;5114143;28;20256;-88
2022/02/26 07:36:15;;;;;;;25.70;13.03;;;;;;;;;;5113947;28;20182;-88
2022/02/26 07:38:41;;;;;;;31.70;14.40;;;1.90;99.90;;;;;;5095435;28;20544;-88
2022/02/26 07:41:07;;;;;;;32.67;13.90;;;1.80;99.90;;;;;;5129881;27;20247;-87
2022/02/26 07:43:34;;;;;;;27.87;12.10;;;2.00;99.90;;;;;;5113159;28;20190;-88
2022/02/26 07:46:00;;;;;;;26.67;11.50;;;;;;;;;;5113381;28;20186;-88
2022/02/26 07:48:26;;;;;;;28.27;13.67;;;;;;;;;;5116409;28;20201;-87
2022/02/26 07:50:53;;;;;;;39.70;14.97;;;;;;;;;;5112510;28;20184;-88
2022/02/26 07:53:19;;;;;;;27.97;13.17;;;;;;;;;;5113748;28;20213;-87
2022/02/26 07:55:45;;;;;;;32.27;12.67;;;;;;;;;;5112526;28;20541;-86
2022/02/26 07:58:11;;;;;;;29.63;14.07;;;;;;;;;;5112364;28;20182;-87
2022/02/26 08:00:37;;;;;;;35.23;14.50;;;;;;;;;;5112906;28;20183;-87
2022/02/26 08:03:04;;;;;;;30.67;14.00;;;2.40;99.90;;;;;;5114751;28;20212;-85
2022/02/26 08:05:30;;;;;;;29.17;12.93;;;;;;;;;;5113248;28;20184;-85
2022/02/26 08:07:57;;;;;;;34.77;13.53;;;;;;;;;;5114561;28;20262;-85
2022/02/26 08:10:24;;;;;;;32.67;13.43;;;;;;;;;;5115136;28;20182;-85
2022/02/26 08:12:50;;;;;;;32.07;14.27;;;2.80;99.90;;;;;;5113011;28;20558;-85
2022/02/26 08:15:19;;;;;;;30.33;13.07;;;2.80;99.90;;;;;;5115372;28;20620;-85
2022/02/26 08:17:46;;;;;;;28.77;13.33;;;;;;;;;;5113335;28;20185;-86
2022/02/26 08:20:12;;;;;;;30.20;13.03;;;3.50;99.90;;;;;;5112809;28;20171;-85
2022/02/26 08:22:38;;;;;;;32.93;14.07;;;;;;;;;;5095573;28;20321;-85
2022/02/26 08:25:04;;;;;;;30.73;12.93;;;3.50;99.90;;;;;;5113532;28;20208;-84
2022/02/26 08:27:31;;;;;;;31.63;13.80;;;;;;;;;;5114265;28;20177;-85
2022/02/26 08:29:56;;;;;;;34.07;15.47;;;3.70;99.90;;;;;;5113686;27;20187;-85
2022/02/26 08:32:23;;;;;;;29.73;14.13;;;;;;;;;;5114176;28;20722;-86
2022/02/26 08:34:49;;;;;;;30.13;14.13;;;;;;;;;;5113149;28;20266;-86
2022/02/26 08:37:15;;;;;;;29.30;14.00;;;;;;;;;;5113966;28;20184;-87
2022/02/26 08:39:41;;;;;;;36.23;14.20;;;;;;;;;;5096109;28;20187;-87
2022/02/26 08:42:07;;;;;;;28.97;13.67;;;;;;;;;;5092984;28;20656;-85
2022/02/26 08:44:38;;;;;;;30.20;13.47;;;;;;;;;;5114101;28;20189;-86
2022/02/26 08:47:04;;;;;;;26.17;12.57;;;4.60;99.90;;;;;;5106638;28;20177;-86
2022/02/26 08:49:30;;;;;;;25.83;12.73;;;;;;;;;;5089159;28;20194;-87
2022/02/26 08:51:57;;;;;;;25.53;13.43;;;4.50;99.90;;;;;;5113985;28;20173;-86
2022/02/26 08:54:23;;;;;;;25.93;11.37;;;;;;;;;;5113256;28;20316;-86
2022/02/26 08:56:49;;;;;;;25.43;11.67;;;;;;;;;;5114883;28;20337;-84
2022/02/26 08:59:15;;;;;;;28.20;12.70;;;;;;;;;;5120300;28;20177;-86
2022/02/26 09:01:41;;;;;;;27.97;12.43;;;;;;;;;;5124465;28;20272;-84
2022/02/26 09:04:08;;;;;;;27.77;10.50;;;;;;;;;;5129468;28;20180;-85
2022/02/26 09:06:34;;;;;;;24.97;11.37;;;;;;;;;;5122260;28;20193;-86
2022/02/26 09:09:01;;;;;;;63.40;22.33;;;;;;;;;;5127111;28;20189;-87
2022/02/26 09:11:27;;;;;;;64.27;19.93;;;;;;;;;;5125744;28;20170;-86
2022/02/26 09:13:53;;;;;;;31.50;11.00;;;;;;;;;;5125405;28;20209;-88
2022/02/26 09:16:19;;;;;;;21.63;10.30;;;;;;;;;;5120402;28;20203;-86
2022/02/26 09:18:45;;;;;;;23.10;10.17;;;;;;;;;;5115269;28;20206;-87
2022/02/26 09:21:13;;;;;;;36.07;14.43;;;;;;;;;;5114413;28;20178;-87
2022/02/26 09:23:39;;;;;;;25.50;11.77;;;6.30;99.90;;;;;;5112587;28;20181;-87
2022/02/26 09:26:06;;;;;;;25.90;12.97;;;;;;;;;;5113229;28;20209;-87
2022/02/26 09:28:33;;;;;;;49.00;18.77;;;6.40;99.90;;;;;;5113699;28;20185;-87
2022/02/26 09:30:59;;;;;;;32.00;14.53;;;;;;;;;;5113387;28;20178;-87
2022/02/26 09:33:25;;;;;;;20.47;10.23;;;;;;;;;;5116271;28;20245;-87
2022/02/26 09:35:52;;;;;;;26.67;11.30;;;;;;;;;;5112512;28;20191;-88
2022/02/26 09:38:18;;;;;;;24.83;10.27;;;;;;;;;;5095158;28;20190;-88
2022/02/26 09:40:44;;;;;;;18.07;9.80;;;;;;;;;;5095453;28;20543;-86
2022/02/26 09:43:10;;;;;;;20.90;10.80;;;;;;;;;;5131780;27;20548;-88
2022/02/26 09:45:36;;;;;;;22.33;11.60;;;6.70;99.90;;;;;;5132821;27;20189;-87
2022/02/26 09:48:02;;;;;;;28.03;12.23;;;6.80;99.90;;;;;;5102209;28;20178;-87
2022/02/26 09:50:27;;;;;;;21.33;10.53;;;7.00;99.90;;;;;;5082609;28;20185;-88
2022/02/26 09:52:54;;;;;;;27.20;10.17;;;6.90;99.90;;;;;;5117305;28;20185;-85
2022/02/26 09:55:20;;;;;;;22.73;10.73;;;;;;;;;;5099225;28;20186;-87
2022/02/26 09:57:46;;;;;;;21.07;10.67;;;6.50;99.90;;;;;;5118311;28;20255;-87
2022/02/26 10:00:13;;;;;;;22.17;9.57;;;6.40;99.90;;;;;;5115501;28;20619;-87
2022/02/26 10:02:39;;;;;;;23.23;10.13;;;6.50;99.90;;;;;;5100860;28;20182;-87
2022/02/26 10:05:10;;;;;;;19.70;10.07;;;6.80;99.90;;;;;;5117181;28;20178;-87
2022/02/26 10:07:38;;;;;;;21.30;9.03;;;6.70;99.90;;;;;;5118119;28;20653;-86
2022/02/26 10:10:15;;;;;;;20.00;10.20;;;6.60;99.90;;;;;;5119787;28;20193;-86
2022/02/26 10:12:41;;;;;;;23.97;9.97;;;6.60;99.90;;;;;;5138768;28;20176;-88
2022/02/26 10:15:30;;;;;;;19.83;9.57;;;6.80;99.90;;;;;;5136565;28;20268;-85
2022/02/26 10:18:01;;;;;;;21.27;10.67;;;7.00;99.90;;;;;;5117706;28;20225;-85
2022/02/26 10:20:28;;;;;;;26.23;10.43;;;;;;;;;;5117912;28;20273;-86
2022/02/26 10:22:55;;;;;;;25.97;10.93;;;7.30;99.90;;;;;;5115207;28;20181;-86
2022/02/26 10:25:22;;;;;;;21.00;10.07;;;7.40;99.90;;;;;;5116320;28;20181;-87
2022/02/26 10:27:53;;;;;;;21.50;9.63;;;7.40;99.90;;;;;;5117105;28;20209;-86
2022/02/26 10:30:30;;;;;;;23.77;11.23;;;7.50;99.90;;;;;;5115410;28;20166;-88
2022/02/26 10:33:07;;;;;;;25.00;13.37;;;7.40;99.90;;;;;;5114540;28;20233;-88
2022/02/26 10:35:59;;;;;;;32.60;14.33;;;6.80;99.90;;;;;;5116098;28;20184;-89
2022/02/26 10:38:27;;;;;;;33.23;14.00;;;6.50;99.90;;;;;;5116332;28;20157;-86
2022/02/26 10:41:09;;;;;;;28.40;13.50;;;6.40;99.90;;;;;;5114591;28;20334;-86
2022/02/26 10:43:46;;;;;;;25.97;12.80;;;6.40;99.90;;;;;;5113913;28;20178;-88
2022/02/26 10:46:20;;;;;;;28.60;12.87;;;6.40;99.90;;;;;;5114665;28;20203;-88
2022/02/26 10:48:47;;;;;;;23.53;11.37;;;6.40;99.90;;;;;;5114321;28;20182;-86
2022/02/26 10:51:18;;;;;;;27.17;12.93;;;6.30;99.90;;;;;;5114205;28;20178;-86
2022/02/26 10:53:48;;;;;;;27.83;12.80;;;6.30;99.90;;;;;;5115155;28;20201;-86
2022/02/26 10:56:14;;;;;;;25.57;12.53;;;6.50;99.90;;;;;;5097348;28;20178;-86
2022/02/26 10:58:41;;;;;;;32.20;13.27;;;6.60;99.90;;;;;;5113581;28;20181;-86
2022/02/26 11:01:12;;;;;;;18.37;9.83;;;6.30;99.90;;;;;;5113258;28;20255;-86
2022/02/26 11:03:39;;;;;;;25.33;11.80;;;6.20;99.90;;;;;;5113214;28;20611;-87
2022/02/26 11:06:08;;;;;;;22.30;12.73;;;6.10;99.90;;;;;;5113677;28;20182;-87
2022/02/26 11:08:35;;;;;;;24.47;10.47;;;5.90;99.90;;;;;;5113570;28;20170;-87
2022/02/26 11:11:05;;;;;;;21.60;11.80;;;6.10;99.90;;;;;;5095987;28;20205;-88
2022/02/26 11:13:31;;;;;;;17.53;9.07;;;5.90;99.90;;;;;;5114832;28;20189;-87
2022/02/26 11:15:59;;;;;;;22.63;11.27;;;5.90;99.90;;;;;;5096830;28;20603;-87
2022/02/26 11:18:30;;;;;;;15.93;7.40;;;6.10;99.90;;;;;;5113500;28;20166;-87
2022/02/26 11:20:57;;;;;;;19.80;8.20;;;6.30;99.90;;;;;;5114497;28;20520;-87
2022/02/26 11:23:24;;;;;;;17.87;8.23;;;6.40;99.90;;;;;;5113388;28;20189;-87
2022/02/26 11:25:52;;;;;;;15.03;8.40;;;6.80;99.90;;;;;;5114308;28;20170;-87
2022/02/26 11:28:18;;;;;;;18.73;8.27;;;6.60;99.90;;;;;;5113777;28;20635;-88
2022/02/26 11:30:54;;;;;;;16.60;8.43;;;6.60;99.90;;;;;;5112838;28;20174;-87
2022/02/26 11:33:20;;;;;;;18.17;7.67;;;6.50;99.90;;;;;;5113933;28;20228;-87
2022/02/26 11:35:55;;;;;;;20.00;7.10;;;6.40;99.90;;;;;;5114023;28;20239;-87
2022/02/26 11:38:22;;;;;;;15.93;7.70;;;6.30;99.90;;;;;;5113746;28;20250;-86
2022/02/26 11:41:15;;;;;;;17.07;7.67;;;6.30;99.90;;;;;;5095818;28;20182;-88
2022/02/26 11:43:41;;;;;;;12.87;7.70;;;;;;;;;;5112289;28;20205;-90
2022/02/26 11:46:21;;;;;;;16.13;7.27;;;6.70;99.90;;;;;;5114326;28;20169;-88
2022/02/26 11:48:48;;;;;;;14.63;6.93;;;;;;;;;;5112856;28;20677;-89
2022/02/26 11:51:15;;;;;;;22.37;9.60;;;;;;;;;;5114157;28;20178;-90
2022/02/26 11:53:51;;;;;;;17.10;8.57;;;7.10;99.90;;;;;;5115361;28;20234;-92
2022/02/26 11:56:17;;;;;;;17.53;9.03;;;;;;;;;;5091339;28;20190;-92
2022/02/26 11:58:44;;;;;;;17.33;9.30;;;;;;;;;;5114779;28;20178;-90
2022/02/26 12:01:11;;;;;;;20.17;9.20;;;;;;;;;;5113128;28;20182;-91
2022/02/26 12:03:54;;;;;;;19.17;8.50;;;7.80;99.90;;;;;;5113898;28;20189;-91
2022/02/26 12:06:30;;;;;;;20.80;10.07;;;8.00;99.90;;;;;;5116376;28;20222;-92
2022/02/26 12:09:02;;;;;;;21.57;8.10;;;7.80;99.90;;;;;;5118357;28;20261;-91
2022/02/26 12:11:31;;;;;;;19.20;8.37;;;8.30;99.90;;;;;;5126302;28;20209;-91
2022/02/26 12:14:08;;;;;;;18.37;8.20;;;8.50;95.20;;;;;;5128311;28;20206;-90
2022/02/26 12:16:39;;;;;;;16.50;6.37;;;8.40;93.50;;;;;;5126029;28;20196;-89
2022/02/26 12:19:05;;;;;;;15.30;6.13;;;;;;;;;;5087408;28;20197;-87
2022/02/26 12:21:32;;;;;;;12.07;6.17;;;8.50;92.00;;;;;;5103012;28;20181;-87
2022/02/26 12:24:08;;;;;;;18.50;5.80;;;8.40;92.70;;;;;;5113105;28;20188;-88
2022/02/26 12:26:48;;;;;;;10.43;5.80;;;8.40;92.20;;;;;;5118216;28;20220;-91
2022/02/26 12:29:26;;;;;;;13.97;6.10;;;8.20;89.40;;;;;;5102391;28;20177;-91
2022/02/26 12:32:16;;;;;;;11.80;5.30;;;8.20;92.00;;;;;;5120388;28;20177;-90
2022/02/26 12:35:03;;;;;;;11.03;5.80;;;8.70;93.30;;;;;;5121480;28;20304;-91
2022/02/26 12:37:33;;;;;;;11.80;4.67;;;8.70;84.00;;;;;;5122140;28;20162;-90
2022/02/26 12:40:03;;;;;;;6.03;3.70;;;8.90;80.40;;;;;;5123086;28;20170;-93
2022/02/26 12:42:31;;;;;;;10.87;4.43;;;8.90;80.10;;;;;;5124028;28;20177;-92
2022/02/26 12:45:04;;;;;;;12.00;5.30;;;8.90;81.10;;;;;;5128211;28;20273;-92
2022/02/26 12:47:31;;;;;;;10.00;5.20;;;8.70;81.20;;;;;;5131457;28;20185;-92
2022/02/26 12:49:57;;;;;;;15.00;6.70;;;8.60;82.70;;;;;;5132011;28;20174;-92
2022/02/26 12:52:26;;;;;;;15.13;6.53;;;8.90;83.50;;;;;;5128035;28;20181;-93
2022/02/26 12:54:52;;;;;;;12.23;5.73;;;8.90;86.60;;;;;;5126557;28;20224;-90
2022/02/26 12:57:18;;;;;;;14.23;6.73;;;9.10;80.30;;;;;;5123503;28;20630;-92
2022/02/26 12:59:45;;;;;;;15.07;7.80;;;9.30;80.00;;;;;;5127229;28;20237;-91
2022/02/26 13:02:12;;;;;;;17.23;9.57;;;9.30;81.30;;;;;;5126392;28;20184;-91
2022/02/26 13:04:40;;;;;;;15.13;8.33;;;9.00;88.00;;;;;;5127997;28;20212;-91
2022/02/26 13:07:08;;;;;;;15.60;8.73;;;8.80;90.00;;;;;;5130215;28;20193;-90
2022/02/26 13:09:52;;;;;;;13.97;8.70;;;8.70;88.00;;;;;;5127232;28;20245;-91
2022/02/26 13:12:30;;;;;;;13.43;6.13;;;8.20;88.80;;;;;;5132066;28;20187;-91